createdAt,value
2022-11-29T00:01:06.855Z,95335.91
2022-11-29T00:03:34.207Z,95338.50
2022-11-29T00:06:12.572Z,95340.97
2022-11-29T00:08:41.295Z,95338.19
2022-11-29T00:11:11.636Z,95325.69
2022-11-29T00:13:39.049Z,95336.69
2022-11-29T00:16:08.599Z,95346.31
2022-11-29T00:18:36.085Z,95341.50
2022-11-29T00:21:10.097Z,95334.28
2022-11-29T00:23:36.898Z,95346.81
2022-11-29T00:26:05.623Z,95346.06
2022-11-29T00:28:32.753Z,95340.31
2022-11-29T00:30:59.515Z,95344.41
2022-11-29T00:33:26.628Z,95338.75
2022-11-29T00:35:53.341Z,95346.25
2022-11-29T00:38:20.115Z,95349.19
2022-11-29T00:40:51.787Z,95341.34
2022-11-29T00:43:18.633Z,95346.44
2022-11-29T00:45:45.405Z,95345.78
2022-11-29T00:48:12.299Z,95345.06
2022-11-29T00:50:39.018Z,95344.94
2022-11-29T00:53:05.846Z,95346.41
2022-11-29T00:55:32.585Z,95342.22
2022-11-29T00:57:59.315Z,95352.19
2022-11-29T01:00:26.261Z,95335.88
2022-11-29T01:02:53.007Z,95346.78
2022-11-29T01:05:20.138Z,95341.09
2022-11-29T01:07:46.948Z,95333.50
2022-11-29T01:10:13.878Z,95331.69
2022-11-29T01:12:40.579Z,95328.41
2022-11-29T01:15:08.744Z,95336.69
2022-11-29T01:17:36.145Z,95335.09
2022-11-29T01:20:04.786Z,95337.72
2022-11-29T01:22:31.755Z,95336.66
2022-11-29T01:24:58.672Z,95328.72
2022-11-29T01:27:25.411Z,95326.81
2022-11-29T01:29:52.530Z,95329.31
2022-11-29T01:32:19.209Z,95328.09
2022-11-29T01:34:46.422Z,95330.47
2022-11-29T01:37:13.336Z,95326.94
2022-11-29T01:39:40.266Z,95318.41
2022-11-29T01:42:07.063Z,95309.59
2022-11-29T01:44:33.728Z,95314.13
2022-11-29T01:47:00.346Z,95317.78
2022-11-29T01:49:39.281Z,95317.56
2022-11-29T01:52:11.022Z,95318.22
2022-11-29T01:54:43.915Z,95307.09
2022-11-29T01:57:11.063Z,95308.44
2022-11-29T01:59:44.207Z,95301.97
2022-11-29T02:02:22.292Z,95303.69
2022-11-29T02:04:50.407Z,95297.78
2022-11-29T02:07:17.405Z,95299.16
2022-11-29T02:09:44.464Z,95297.34
2022-11-29T02:12:34.226Z,95299.28
2022-11-29T02:15:25.611Z,95292.81
2022-11-29T02:17:52.420Z,95294.41
2022-11-29T02:20:37.557Z,95298.47
2022-11-29T02:23:07.305Z,95295.31
2022-11-29T02:25:55.128Z,95293.00
2022-11-29T02:28:55.878Z,95294.25
2022-11-29T02:31:35.047Z,95292.59
2022-11-29T02:34:07.621Z,95290.97
2022-11-29T02:36:56.262Z,95297.56
2022-11-29T02:39:53.291Z,95294.16
2022-11-29T02:42:56.172Z,95303.00
2022-11-29T02:45:38.322Z,95301.09
2022-11-29T02:48:17.301Z,95307.66
2022-11-29T02:50:52.745Z,95311.94
2022-11-29T02:53:37.242Z,95296.66
2022-11-29T02:56:08.747Z,95301.19
2022-11-29T02:58:51.577Z,95299.72
2022-11-29T03:01:44.909Z,95305.84
2022-11-29T03:04:33.651Z,95301.88
2022-11-29T03:07:30.924Z,95302.28
2022-11-29T03:10:14.232Z,95305.72
2022-11-29T03:12:50.437Z,95301.25
2022-11-29T03:15:22.876Z,95299.03
2022-11-29T03:18:11.381Z,95304.91
2022-11-29T03:21:09.037Z,95298.38
2022-11-29T03:23:45.308Z,95313.66
2022-11-29T03:26:21.109Z,95312.53
2022-11-29T03:29:01.100Z,95311.88
2022-11-29T03:31:47.597Z,95305.03
2022-11-29T03:34:20.035Z,95310.81
2022-11-29T03:37:10.987Z,95314.81
2022-11-29T03:40:06.510Z,95322.81
2022-11-29T03:42:40.922Z,95327.31
2022-11-29T03:45:25.402Z,95320.75
2022-11-29T03:48:00.026Z,95317.72
2022-11-29T03:50:35.158Z,95319.34
2022-11-29T03:53:11.579Z,95317.31
2022-11-29T03:56:26.020Z,95313.66
2022-11-29T03:59:01.881Z,95311.41
2022-11-29T04:02:05.304Z,95316.19
2022-11-29T04:04:40.986Z,95310.81
2022-11-29T04:07:23.245Z,95311.97
2022-11-29T04:10:03.443Z,95316.31
2022-11-29T04:12:42.438Z,95319.56
2022-11-29T04:15:42.418Z,95313.44
2022-11-29T04:18:49.967Z,95326.03
2022-11-29T04:21:25.885Z,95319.22
2022-11-29T04:23:55.763Z,95322.03
2022-11-29T04:26:59.693Z,95332.22
2022-11-29T04:29:55.313Z,95329.06
2022-11-29T04:32:39.781Z,95321.56
2022-11-29T04:35:09.379Z,95321.81
2022-11-29T04:37:55.039Z,95325.78
2022-11-29T04:40:43.760Z,95325.22
2022-11-29T04:43:48.722Z,95326.00
2022-11-29T04:46:30.704Z,95321.59
2022-11-29T04:49:25.709Z,95321.72
2022-11-29T04:52:17.444Z,95319.81
2022-11-29T04:55:18.863Z,95311.16
2022-11-29T04:58:04.400Z,95315.16
2022-11-29T05:00:39.489Z,95314.56
2022-11-29T05:03:25.326Z,95325.31
2022-11-29T05:06:08.308Z,95322.84
2022-11-29T05:08:50.740Z,95321.38
2022-11-29T05:11:32.590Z,95312.16
2022-11-29T05:14:11.878Z,95321.97
2022-11-29T05:16:47.561Z,95322.94
2022-11-29T05:19:36.022Z,95324.97
2022-11-29T05:22:40.473Z,95321.19
2022-11-29T05:26:02.957Z,95318.00
2022-11-29T05:28:48.321Z,95328.41
2022-11-29T05:31:21.082Z,95315.91
2022-11-29T05:33:57.892Z,95320.25
2022-11-29T05:36:33.650Z,95318.00
2022-11-29T05:39:19.947Z,95318.91
2022-11-29T05:42:07.888Z,95335.94
2022-11-29T05:44:46.149Z,95330.97
2022-11-29T05:47:23.110Z,95332.13
2022-11-29T05:50:03.252Z,95333.16
2022-11-29T05:52:41.997Z,95331.94
2022-11-29T05:55:19.538Z,95338.38
2022-11-29T05:58:20.200Z,95337.84
2022-11-29T06:01:14.434Z,95330.63
2022-11-29T06:03:51.045Z,95334.06
2022-11-29T06:06:29.760Z,95328.41
2022-11-29T06:09:15.086Z,95332.03
2022-11-29T06:12:20.817Z,95327.25
2022-11-29T06:15:19.356Z,95325.97
2022-11-29T06:18:03.055Z,95328.16
2022-11-29T06:21:00.781Z,95324.28
2022-11-29T06:23:41.445Z,95325.56
2022-11-29T06:26:12.908Z,95329.03
2022-11-29T06:28:51.568Z,95328.34
2022-11-29T06:31:29.222Z,95333.16
2022-11-29T06:34:11.590Z,95336.59
2022-11-29T06:36:56.669Z,95323.41
2022-11-29T06:39:23.946Z,95321.03
2022-11-29T06:41:50.717Z,95327.66
2022-11-29T06:44:17.804Z,95330.66
2022-11-29T06:46:47.952Z,95343.63
2022-11-29T06:49:22.868Z,95338.44
2022-11-29T06:52:01.796Z,95327.03
2022-11-29T06:54:47.664Z,95336.31
2022-11-29T06:57:32.308Z,95348.44
2022-11-29T07:00:11.738Z,95339.03
2022-11-29T07:02:41.193Z,95345.03
2022-11-29T07:05:46.795Z,95337.84
2022-11-29T07:08:20.143Z,95342.78
2022-11-29T07:10:50.236Z,95342.44
2022-11-29T07:13:18.185Z,95340.28
2022-11-29T07:16:03.324Z,95343.81
2022-11-29T07:18:40.720Z,95344.31
2022-11-29T07:21:10.525Z,95344.88
2022-11-29T07:23:43.457Z,95349.63
2022-11-29T07:26:46.519Z,95334.97
2022-11-29T07:29:25.467Z,95342.78
2022-11-29T07:32:07.042Z,95351.50
2022-11-29T07:34:57.047Z,95351.66
2022-11-29T07:38:01.546Z,95356.53
2022-11-29T07:40:37.707Z,95358.72
2022-11-29T07:43:19.643Z,95355.63
2022-11-29T07:45:47.052Z,95355.28
2022-11-29T07:48:16.237Z,95340.22
2022-11-29T07:50:43.912Z,95348.84
2022-11-29T07:53:19.353Z,95352.06
2022-11-29T07:55:47.194Z,95357.88
2022-11-29T07:58:15.381Z,95354.72
2022-11-29T08:00:43.460Z,95350.75
2022-11-29T08:03:10.940Z,95355.38
2022-11-29T08:05:38.584Z,95350.81
2022-11-29T08:08:06.567Z,95358.75
2022-11-29T08:10:33.320Z,95361.84
2022-11-29T08:13:00.124Z,95360.38
2022-11-29T08:15:27.489Z,95360.53
2022-11-29T08:17:54.302Z,95357.81
2022-11-29T08:20:21.231Z,95359.50
2022-11-29T08:23:00.479Z,95353.47
2022-11-29T08:25:28.195Z,95354.38
2022-11-29T08:27:56.072Z,95345.63
2022-11-29T08:30:23.532Z,95356.88
2022-11-29T08:32:52.001Z,95354.50
2022-11-29T08:35:20.836Z,95350.84
2022-11-29T08:37:47.682Z,95355.75
2022-11-29T08:40:16.013Z,95355.16
2022-11-29T08:42:42.768Z,95353.34
2022-11-29T08:45:11.288Z,95360.75
2022-11-29T08:47:40.250Z,95360.34
2022-11-29T08:50:15.912Z,95360.88
2022-11-29T08:53:06.594Z,95355.75
2022-11-29T08:55:37.479Z,95363.47
2022-11-29T08:58:06.730Z,95361.91
2022-11-29T09:00:34.081Z,95348.38
2022-11-29T09:03:21.784Z,95361.50
2022-11-29T09:05:48.951Z,95351.06
2022-11-29T09:08:15.817Z,95350.41
2022-11-29T09:10:43.678Z,95335.31
2022-11-29T09:13:11.227Z,95346.66
2022-11-29T09:15:44.742Z,95337.56
2022-11-29T09:18:11.814Z,95344.50
2022-11-29T09:20:38.450Z,95339.19
2022-11-29T09:23:05.283Z,95349.75
2022-11-29T09:25:32.162Z,95341.22
2022-11-29T09:28:01.873Z,95335.31
2022-11-29T09:30:31.991Z,95333.53
2022-11-29T09:33:05.113Z,95328.41
2022-11-29T09:35:33.108Z,95331.00
2022-11-29T09:37:59.898Z,95328.97
2022-11-29T09:40:52.886Z,95330.13
2022-11-29T09:44:00.662Z,95321.72
2022-11-29T09:46:44.030Z,95311.59
2022-11-29T09:49:34.466Z,95321.38
2022-11-29T09:52:13.528Z,95316.69
2022-11-29T09:54:49.305Z,95313.22
2022-11-29T09:57:17.665Z,95307.97
2022-11-29T09:59:49.249Z,95301.50
2022-11-29T10:02:34.966Z,95297.53
2022-11-29T10:05:12.288Z,95297.25
2022-11-29T10:08:03.527Z,95290.69
2022-11-29T10:10:49.868Z,95287.88
2022-11-29T10:13:19.376Z,95290.06
2022-11-29T10:15:50.609Z,95288.00
2022-11-29T10:18:29.057Z,95285.47
2022-11-29T10:21:00.000Z,95280.09
2022-11-29T10:23:31.168Z,95279.78
2022-11-29T10:25:58.635Z,95277.41
2022-11-29T10:28:30.735Z,95276.25
2022-11-29T10:31:08.483Z,95276.31
2022-11-29T10:33:39.509Z,95267.28
2022-11-29T10:36:19.688Z,95268.94
2022-11-29T10:38:47.762Z,95271.38
2022-11-29T10:41:22.747Z,95261.75
2022-11-29T10:43:51.908Z,95277.13
2022-11-29T10:46:31.440Z,95259.53
2022-11-29T10:49:01.924Z,95251.09
2022-11-29T10:51:29.239Z,95271.09
2022-11-29T10:53:56.781Z,95267.91
2022-11-29T10:56:31.222Z,95259.69
2022-11-29T10:59:05.183Z,95266.94
2022-11-29T11:01:38.567Z,95261.19
2022-11-29T11:04:07.544Z,95247.97
2022-11-29T11:06:51.532Z,95256.19
2022-11-29T11:09:28.825Z,95253.50
2022-11-29T11:12:02.509Z,95255.00
2022-11-29T11:14:37.652Z,95252.25
2022-11-29T11:17:26.353Z,95257.31
2022-11-29T11:20:02.194Z,95257.94
2022-11-29T11:22:30.814Z,95261.41
2022-11-29T11:25:24.395Z,95268.78
2022-11-29T11:27:51.415Z,95268.38
2022-11-29T11:30:23.572Z,95259.47
2022-11-29T11:33:17.585Z,95266.59
2022-11-29T11:35:44.451Z,95268.13
2022-11-29T11:38:20.103Z,95268.19
2022-11-29T11:40:47.309Z,95271.56
2022-11-29T11:43:21.627Z,95266.31
2022-11-29T11:45:53.511Z,95277.13
2022-11-29T11:48:21.411Z,95273.28
2022-11-29T11:50:58.347Z,95272.72
2022-11-29T11:53:29.879Z,95275.50
2022-11-29T11:56:01.649Z,95268.69
2022-11-29T11:58:43.488Z,95259.53
2022-11-29T12:01:13.364Z,95263.81
2022-11-29T12:03:56.654Z,95274.09
2022-11-29T12:06:31.915Z,95270.13
2022-11-29T12:09:19.375Z,95270.06
2022-11-29T12:12:11.293Z,95265.88
2022-11-29T12:15:00.078Z,95262.06
2022-11-29T12:17:36.547Z,95257.78
2022-11-29T12:20:21.787Z,95263.31
2022-11-29T12:23:02.852Z,95253.34
2022-11-29T12:25:34.502Z,95255.56
2022-11-29T12:28:01.381Z,95249.69
2022-11-29T12:30:28.348Z,95257.31
2022-11-29T12:33:03.527Z,95261.09
2022-11-29T12:35:35.149Z,95257.59
2022-11-29T12:38:01.836Z,95254.59
2022-11-29T12:40:47.207Z,95257.47
2022-11-29T12:43:51.297Z,95254.78
2022-11-29T12:46:26.355Z,95250.50
2022-11-29T12:49:06.021Z,95254.28
2022-11-29T12:51:41.882Z,95257.47
2022-11-29T12:54:44.193Z,95258.81
2022-11-29T12:57:50.280Z,95255.38
2022-11-29T13:00:19.895Z,95264.66
2022-11-29T13:03:06.872Z,95259.47
2022-11-29T13:05:45.399Z,95255.41
2022-11-29T13:08:22.907Z,95264.25
2022-11-29T13:11:01.625Z,95258.72
2022-11-29T13:13:39.815Z,95263.88
2022-11-29T13:16:30.691Z,95247.97
2022-11-29T13:18:57.895Z,95269.94
2022-11-29T13:21:45.009Z,95270.69
2022-11-29T13:24:47.580Z,95270.94
2022-11-29T13:27:49.646Z,95272.22
2022-11-29T13:30:16.914Z,95260.66
2022-11-29T13:33:03.888Z,95282.66
2022-11-29T13:35:39.337Z,95268.91
2022-11-29T13:38:32.500Z,95275.41
2022-11-29T13:41:13.085Z,95274.34
2022-11-29T13:43:44.600Z,95277.38
2022-11-29T13:46:28.562Z,95284.13
2022-11-29T13:48:55.893Z,95289.03
2022-11-29T13:51:26.097Z,95292.03
2022-11-29T13:53:55.057Z,95285.78
2022-11-29T13:56:26.256Z,95280.56
2022-11-29T13:58:54.580Z,95268.78
2022-11-29T14:01:22.693Z,95264.84
2022-11-29T14:04:07.559Z,95281.81
2022-11-29T14:06:38.922Z,95284.94
2022-11-29T14:09:24.678Z,95274.94
2022-11-29T14:12:19.195Z,95282.09
2022-11-29T14:14:54.635Z,95286.75
2022-11-29T14:18:15.578Z,95277.47
2022-11-29T14:20:45.043Z,95272.03
2022-11-29T14:23:17.977Z,95276.88
2022-11-29T14:25:56.728Z,95279.88
2022-11-29T14:28:23.603Z,95288.19
2022-11-29T14:31:01.853Z,95288.19
2022-11-29T14:33:47.106Z,95289.75
2022-11-29T14:36:19.318Z,95283.41
2022-11-29T14:39:00.642Z,95280.63
2022-11-29T14:41:49.740Z,95283.06
2022-11-29T14:44:19.129Z,95287.41
2022-11-29T14:46:47.839Z,95285.59
2022-11-29T14:49:26.254Z,95288.47
2022-11-29T14:52:10.034Z,95289.31
2022-11-29T14:54:55.004Z,95294.78
2022-11-29T14:57:46.998Z,95289.88
2022-11-29T15:00:51.072Z,95288.59
2022-11-29T15:03:26.378Z,95288.75
2022-11-29T15:06:00.063Z,95286.59
2022-11-29T15:08:26.952Z,95294.19
2022-11-29T15:10:59.369Z,95288.66
2022-11-29T15:13:31.944Z,95286.28
2022-11-29T15:16:19.796Z,95294.91
2022-11-29T15:19:13.294Z,95284.66
2022-11-29T15:21:55.013Z,95285.59
2022-11-29T15:24:26.715Z,95279.72
2022-11-29T15:27:03.055Z,95288.16
2022-11-29T15:29:31.997Z,95288.25
2022-11-29T15:32:05.637Z,95295.09
2022-11-29T15:34:34.533Z,95285.84
2022-11-29T15:37:01.429Z,95293.28
2022-11-29T15:39:32.378Z,95297.31
2022-11-29T15:42:14.099Z,95300.06
2022-11-29T15:44:48.851Z,95305.03
2022-11-29T15:47:26.673Z,95297.03
2022-11-29T15:49:54.298Z,95292.25
2022-11-29T15:52:29.864Z,95301.66
2022-11-29T15:55:10.853Z,95299.94
2022-11-29T15:57:42.935Z,95295.28
2022-11-29T16:00:20.177Z,95305.13
2022-11-29T16:03:07.903Z,95297.03
2022-11-29T16:05:39.195Z,95295.06
2022-11-29T16:08:17.332Z,95292.53
2022-11-29T16:10:50.510Z,95292.41
2022-11-29T16:13:26.264Z,95296.03
2022-11-29T16:16:16.916Z,95297.44
2022-11-29T16:18:46.777Z,95295.84
2022-11-29T16:21:32.401Z,95302.56
2022-11-29T16:24:10.390Z,95298.66
2022-11-29T16:26:42.259Z,95303.44
2022-11-29T16:29:27.760Z,95299.22
2022-11-29T16:31:55.456Z,95302.88
2022-11-29T16:34:27.579Z,95309.91
2022-11-29T16:37:06.635Z,95296.16
2022-11-29T16:39:38.468Z,95302.53
2022-11-29T16:42:24.851Z,95300.81
2022-11-29T16:45:02.075Z,95302.72
2022-11-29T16:47:30.898Z,95296.50
2022-11-29T16:50:15.398Z,95303.88
2022-11-29T16:52:42.959Z,95300.28
2022-11-29T16:55:09.739Z,95303.00
2022-11-29T16:57:37.393Z,95297.66
2022-11-29T17:00:33.415Z,95305.72
2022-11-29T17:03:00.365Z,95290.78
2022-11-29T17:05:27.645Z,95298.69
2022-11-29T17:07:54.977Z,95295.75
2022-11-29T17:10:25.477Z,95297.66
2022-11-29T17:12:52.883Z,95298.41
2022-11-29T17:15:19.694Z,95293.69
2022-11-29T17:17:46.332Z,95291.53
2022-11-29T17:20:14.001Z,95306.03
2022-11-29T17:22:41.680Z,95304.34
2022-11-29T17:25:09.073Z,95310.56
2022-11-29T17:27:36.524Z,95304.59
2022-11-29T17:30:04.178Z,95295.88
2022-11-29T17:32:33.116Z,95303.25
2022-11-29T17:34:59.883Z,95311.88
2022-11-29T17:37:31.736Z,95318.34
2022-11-29T17:39:58.512Z,95331.13
2022-11-29T17:42:25.396Z,95329.34
2022-11-29T17:44:52.314Z,95324.75
2022-11-29T17:47:19.141Z,95324.00
2022-11-29T17:49:46.441Z,95326.94
2022-11-29T17:52:13.387Z,95338.41
2022-11-29T17:54:40.390Z,95331.59
2022-11-29T17:57:07.118Z,95330.44
2022-11-29T17:59:33.960Z,95329.53
2022-11-29T18:02:02.202Z,95320.19
2022-11-29T18:04:29.539Z,95330.50
2022-11-29T18:06:56.339Z,95334.00
2022-11-29T18:09:23.332Z,95341.00
2022-11-29T18:11:50.718Z,95337.38
2022-11-29T18:14:20.669Z,95340.44
2022-11-29T18:16:47.906Z,95334.28
2022-11-29T18:19:17.874Z,95337.50
2022-11-29T18:21:45.069Z,95339.75
2022-11-29T18:24:12.146Z,95344.28
2022-11-29T18:26:39.811Z,95334.66
2022-11-29T18:29:07.472Z,95332.00
2022-11-29T18:31:39.524Z,95329.66
2022-11-29T18:34:11.429Z,95326.59
2022-11-29T18:36:44.578Z,95329.09
2022-11-29T18:39:16.573Z,95333.19
2022-11-29T18:41:45.700Z,95311.84
2022-11-29T18:44:14.844Z,95323.53
2022-11-29T18:46:43.600Z,95326.13
2022-11-29T18:49:13.434Z,95333.53
2022-11-29T18:51:42.892Z,95311.66
2022-11-29T18:54:10.834Z,95313.56
2022-11-29T18:56:38.064Z,95312.97
2022-11-29T18:59:10.939Z,95317.88
2022-11-29T19:01:42.550Z,95308.69
2022-11-29T19:04:15.406Z,95314.81
2022-11-29T19:06:43.379Z,95314.72
2022-11-29T19:09:21.731Z,95316.84
2022-11-29T19:11:49.886Z,95322.31
2022-11-29T19:14:17.507Z,95323.31
2022-11-29T19:16:46.069Z,95323.09
2022-11-29T19:19:13.165Z,95329.56
2022-11-29T19:21:40.570Z,95327.84
2022-11-29T19:24:13.912Z,95325.13
2022-11-29T19:26:44.445Z,95315.81
2022-11-29T19:29:36.686Z,95323.75
2022-11-29T19:32:08.458Z,95335.00
2022-11-29T19:34:35.156Z,95337.16
2022-11-29T19:37:01.878Z,95344.16
2022-11-29T19:39:29.292Z,95342.41
2022-11-29T19:41:56.181Z,95344.13
2022-11-29T19:44:27.984Z,95334.78
2022-11-29T19:46:57.009Z,95337.94
2022-11-29T19:49:23.783Z,95335.69
2022-11-29T19:51:50.590Z,95343.72
2022-11-29T19:54:17.382Z,95341.34
2022-11-29T19:56:44.343Z,95343.38
2022-11-29T19:59:11.275Z,95336.00
2022-11-29T20:01:41.548Z,95336.34
2022-11-29T20:04:10.196Z,95330.09
2022-11-29T20:06:37.408Z,95341.91
2022-11-29T20:09:04.421Z,95329.56
2022-11-29T20:11:31.384Z,95324.97
2022-11-29T20:14:00.458Z,95331.34
2022-11-29T20:16:28.901Z,95327.03
2022-11-29T20:18:56.850Z,95324.56
2022-11-29T20:21:29.393Z,95332.28
2022-11-29T20:24:01.360Z,95318.66
2022-11-29T20:26:29.442Z,95329.84
2022-11-29T20:28:57.082Z,95329.16
2022-11-29T20:31:24.373Z,95316.31
2022-11-29T20:33:53.232Z,95331.75
2022-11-29T20:36:23.076Z,95328.63
2022-11-29T20:39:01.338Z,95321.59
2022-11-29T20:41:36.197Z,95314.22
2022-11-29T20:44:03.707Z,95327.72
2022-11-29T20:46:30.839Z,95319.34
2022-11-29T20:49:03.133Z,95318.66
2022-11-29T20:51:51.876Z,95302.44
2022-11-29T20:54:20.118Z,95301.22
2022-11-29T20:56:46.794Z,95310.53
2022-11-29T20:59:13.757Z,95304.72
2022-11-29T21:01:40.567Z,95307.09
2022-11-29T21:04:07.485Z,95301.06
2022-11-29T21:06:40.230Z,95306.19
2022-11-29T21:09:07.210Z,95298.81
2022-11-29T21:11:34.307Z,95290.31
2022-11-29T21:14:04.147Z,95295.97
2022-11-29T21:16:31.906Z,95297.34
2022-11-29T21:19:01.231Z,95296.63
2022-11-29T21:21:42.752Z,95293.34
2022-11-29T21:24:48.098Z,95298.47
2022-11-29T21:27:20.461Z,95302.06
2022-11-29T21:29:47.586Z,95308.13
2022-11-29T21:32:22.210Z,95310.53
2022-11-29T21:34:49.460Z,95302.81
2022-11-29T21:37:20.130Z,95302.91
2022-11-29T21:39:49.075Z,95311.03
2022-11-29T21:42:15.778Z,95302.53
2022-11-29T21:44:43.331Z,95303.59
2022-11-29T21:47:10.213Z,95303.00
2022-11-29T21:49:39.595Z,95300.25
2022-11-29T21:52:06.890Z,95301.38
2022-11-29T21:54:34.080Z,95301.44
2022-11-29T21:57:00.877Z,95306.66
2022-11-29T21:59:28.219Z,95306.72
2022-11-29T22:01:55.203Z,95292.31
2022-11-29T22:04:22.583Z,95308.81
2022-11-29T22:06:49.366Z,95301.88
2022-11-29T22:09:16.413Z,95301.84
2022-11-29T22:11:43.109Z,95299.56
2022-11-29T22:14:15.360Z,95300.50
2022-11-29T22:16:42.470Z,95297.69
2022-11-29T22:19:12.415Z,95286.13
2022-11-29T22:21:40.813Z,95288.72
2022-11-29T22:24:09.753Z,95282.25
2022-11-29T22:26:37.653Z,95287.69
2022-11-29T22:29:05.291Z,95282.72
2022-11-29T22:31:32.976Z,95278.06
2022-11-29T22:33:59.869Z,95285.66
2022-11-29T22:36:26.561Z,95277.63
2022-11-29T22:38:53.755Z,95281.47
2022-11-29T22:41:20.566Z,95269.69
2022-11-29T22:43:47.446Z,95269.78
2022-11-29T22:46:22.556Z,95273.75
2022-11-29T22:48:52.511Z,95273.41
2022-11-29T22:51:25.085Z,95275.44
2022-11-29T22:53:54.434Z,95272.94
2022-11-29T22:56:23.121Z,95266.72
2022-11-29T22:58:50.230Z,95276.69
2022-11-29T23:01:31.328Z,95280.78
2022-11-29T23:04:00.378Z,95273.19
2022-11-29T23:06:38.838Z,95263.31
2022-11-29T23:09:10.632Z,95266.50
2022-11-29T23:11:37.724Z,95253.91
2022-11-29T23:14:04.563Z,95273.19
2022-11-29T23:16:33.062Z,95275.97
2022-11-29T23:19:00.552Z,95275.41
2022-11-29T23:21:31.250Z,95268.38
2022-11-29T23:24:02.027Z,95271.38
2022-11-29T23:26:33.917Z,95263.66
2022-11-29T23:29:00.656Z,95273.66
2022-11-29T23:31:27.595Z,95274.09
2022-11-29T23:33:55.670Z,95268.19
2022-11-29T23:36:22.319Z,95272.19
2022-11-29T23:38:49.154Z,95268.09
2022-11-29T23:41:16.226Z,95268.56
2022-11-29T23:43:43.203Z,95270.84
2022-11-29T23:46:13.598Z,95266.28
2022-11-29T23:48:40.727Z,95274.22
2022-11-29T23:51:07.868Z,95270.19
2022-11-29T23:53:34.668Z,95268.06
2022-11-29T23:56:04.802Z,95272.88
2022-11-29T23:58:32.852Z,95273.06
